createdAt,value
2023-03-07T00:02:51.592Z,21.77
2023-03-07T00:07:54.493Z,21.73
2023-03-07T00:12:58.635Z,21.69
2023-03-07T00:18:01.327Z,21.65
2023-03-07T00:23:04.831Z,21.62
2023-03-07T00:28:08.836Z,21.58
2023-03-07T00:33:11.595Z,21.55
2023-03-07T00:38:14.265Z,21.53
2023-03-07T00:43:18.397Z,21.48
2023-03-07T00:48:23.279Z,21.45
2023-03-07T00:53:26.614Z,21.41
2023-03-07T00:58:33.002Z,21.39
2023-03-07T01:03:36.327Z,21.35
2023-03-07T01:08:39.071Z,21.33
2023-03-07T01:13:43.426Z,21.28
2023-03-07T01:18:49.288Z,21.26
2023-03-07T01:23:52.479Z,21.22
2023-03-07T01:28:58.491Z,21.20
2023-03-07T01:34:02.300Z,21.15
2023-03-07T01:39:10.366Z,21.12
2023-03-07T01:44:19.639Z,21.09
2023-03-07T01:49:27.834Z,21.06
2023-03-07T01:54:38.082Z,21.02
2023-03-07T01:59:46.598Z,21.00
2023-03-07T02:04:54.852Z,20.96
2023-03-07T02:09:59.310Z,20.93
2023-03-07T02:15:04.999Z,20.90
2023-03-07T02:20:23.202Z,20.88
2023-03-07T02:25:33.702Z,20.83
2023-03-07T02:30:39.167Z,20.81
2023-03-07T02:35:42.106Z,20.80
2023-03-07T02:40:45.365Z,20.78
2023-03-07T02:45:49.464Z,20.75
2023-03-07T02:50:52.502Z,20.73
2023-03-07T02:55:55.385Z,20.71
2023-03-07T03:01:00.050Z,20.69
2023-03-07T03:06:02.799Z,20.66
2023-03-07T03:11:06.252Z,20.65
2023-03-07T03:16:12.714Z,20.60
2023-03-07T03:21:15.915Z,20.60
2023-03-07T03:26:18.813Z,20.59
2023-03-07T03:31:23.242Z,20.57
2023-03-07T03:36:27.373Z,20.56
2023-03-07T03:41:35.880Z,20.53
2023-03-07T03:46:40.117Z,20.51
2023-03-07T03:51:43.376Z,20.49
2023-03-07T03:56:46.420Z,20.48
2023-03-07T04:01:50.630Z,20.46
2023-03-07T04:06:54.921Z,20.45
2023-03-07T04:11:57.765Z,20.44
2023-03-07T04:17:01.921Z,20.42
2023-03-07T04:22:05.117Z,20.40
2023-03-07T04:27:08.287Z,20.38
2023-03-07T04:32:14.033Z,20.37
2023-03-07T04:37:16.937Z,20.34
2023-03-07T04:42:19.945Z,20.34
2023-03-07T04:47:24.048Z,20.31
2023-03-07T04:52:26.818Z,20.30
2023-03-07T04:57:30.967Z,20.30
2023-03-07T05:02:35.914Z,20.29
2023-03-07T05:07:39.244Z,20.26
2023-03-07T05:12:42.589Z,20.23
2023-03-07T05:17:48.802Z,20.24
2023-03-07T05:22:51.921Z,20.21
2023-03-07T05:27:54.817Z,20.17
2023-03-07T05:32:58.965Z,20.18
2023-03-07T05:38:02.057Z,20.16
2023-03-07T05:43:07.161Z,20.17
2023-03-07T05:48:12.111Z,20.14
2023-03-07T05:53:15.015Z,20.13
2023-03-07T05:58:17.871Z,20.11
2023-03-07T06:03:23.809Z,20.09
2023-03-07T06:08:26.699Z,20.05
2023-03-07T06:13:31.117Z,20.06
2023-03-07T06:18:35.298Z,20.05
2023-03-07T06:23:38.265Z,20.03
2023-03-07T06:28:46.192Z,20.01
2023-03-07T06:33:52.560Z,20.00
2023-03-07T06:38:56.302Z,19.99
2023-03-07T06:44:00.508Z,19.98
2023-03-07T06:49:07.749Z,19.99
2023-03-07T06:54:11.562Z,19.97
2023-03-07T06:59:15.893Z,19.97
2023-03-07T07:04:20.014Z,19.95
2023-03-07T07:09:24.413Z,19.95
2023-03-07T07:14:27.392Z,19.95
2023-03-07T07:19:31.876Z,19.94
2023-03-07T07:24:35.399Z,19.94
2023-03-07T07:29:38.166Z,19.94
2023-03-07T07:34:42.732Z,19.95
2023-03-07T07:39:45.996Z,19.94
2023-03-07T07:44:49.059Z,19.95
2023-03-07T07:49:53.448Z,19.94
2023-03-07T07:54:56.514Z,19.95
2023-03-07T08:00:00.303Z,19.95
2023-03-07T08:05:08.296Z,19.90
2023-03-07T08:10:15.649Z,19.96
2023-03-07T08:15:21.436Z,20.01
2023-03-07T08:20:25.672Z,16.91
2023-03-07T08:25:28.431Z,17.87
2023-03-07T08:30:33.393Z,19.35
2023-03-07T08:35:37.439Z,19.74
2023-03-07T08:40:40.415Z,19.95
2023-03-07T08:45:43.201Z,20.09
2023-03-07T08:50:48.168Z,20.21
2023-03-07T08:55:50.924Z,20.30
2023-03-07T09:00:53.753Z,20.38
2023-03-07T09:05:57.943Z,20.46
2023-03-07T09:11:03.400Z,20.53
2023-03-07T09:16:07.073Z,20.58
2023-03-07T09:21:11.142Z,20.62
2023-03-07T09:26:14.125Z,20.64
2023-03-07T09:31:17.582Z,20.67
2023-03-07T09:36:21.796Z,20.73
2023-03-07T09:41:43.650Z,20.76
2023-03-07T09:47:03.263Z,20.35
2023-03-07T09:52:15.125Z,20.62
2023-03-07T09:57:24.000Z,20.72
2023-03-07T10:02:30.575Z,20.78
2023-03-07T10:07:36.580Z,20.79
2023-03-07T10:13:02.797Z,20.83
2023-03-07T10:18:16.183Z,20.87
2023-03-07T10:23:33.029Z,20.91
2023-03-07T10:28:40.711Z,20.91
2023-03-07T10:33:47.414Z,20.94
2023-03-07T10:39:02.654Z,20.95
2023-03-07T10:44:05.507Z,20.96
2023-03-07T10:49:13.948Z,20.99
2023-03-07T10:54:22.045Z,20.99
2023-03-07T10:59:26.339Z,20.98
2023-03-07T11:04:43.372Z,20.98
2023-03-07T11:09:49.573Z,20.98
2023-03-07T11:14:54.867Z,20.98
2023-03-07T11:19:58.601Z,20.98
2023-03-07T11:25:07.580Z,20.99
2023-03-07T11:30:25.044Z,20.98
2023-03-07T11:35:47.326Z,20.98
2023-03-07T11:40:57.724Z,20.98
2023-03-07T11:46:08.196Z,20.97
2023-03-07T11:51:31.760Z,20.99
2023-03-07T11:56:40.638Z,21.01
2023-03-07T12:01:52.504Z,21.02
2023-03-07T12:07:12.116Z,21.02
2023-03-07T12:12:30.268Z,21.04
2023-03-07T12:17:47.750Z,21.04
2023-03-07T12:23:02.267Z,21.05
2023-03-07T12:28:18.723Z,21.05
2023-03-07T12:33:27.713Z,21.05
2023-03-07T12:38:39.829Z,21.04
2023-03-07T12:43:47.948Z,21.05
2023-03-07T12:48:59.908Z,21.04
2023-03-07T12:54:11.322Z,21.04
2023-03-07T12:59:16.952Z,21.04
2023-03-07T13:04:26.016Z,21.06
2023-03-07T13:09:32.247Z,21.07
2023-03-07T13:14:46.926Z,21.07
2023-03-07T13:19:54.977Z,21.07
2023-03-07T13:24:58.801Z,21.08
2023-03-07T13:30:19.872Z,21.07
2023-03-07T13:35:54.424Z,21.05
2023-03-07T13:40:58.907Z,21.06
2023-03-07T13:46:04.442Z,21.08
2023-03-07T13:51:09.188Z,21.07
2023-03-07T13:56:26.236Z,21.07
2023-03-07T14:01:36.361Z,21.04
2023-03-07T14:06:42.614Z,21.02
2023-03-07T14:11:54.438Z,21.00
2023-03-07T14:17:09.383Z,21.00
2023-03-07T14:22:23.275Z,21.00
2023-03-07T14:27:26.160Z,20.98
2023-03-07T14:32:32.137Z,20.97
2023-03-07T14:37:34.877Z,20.97
2023-03-07T14:42:46.110Z,20.91
2023-03-07T14:48:13.139Z,20.59
2023-03-07T14:53:21.181Z,20.71
2023-03-07T14:58:27.197Z,20.74
2023-03-07T15:03:32.544Z,20.73
2023-03-07T15:08:38.349Z,20.74
2023-03-07T15:13:45.807Z,20.76
2023-03-07T15:18:54.404Z,20.77
2023-03-07T15:23:59.224Z,20.78
2023-03-07T15:29:06.302Z,20.79
2023-03-07T15:34:24.380Z,20.79
2023-03-07T15:39:34.533Z,20.79
2023-03-07T15:44:38.173Z,20.81
2023-03-07T15:49:45.994Z,20.81
2023-03-07T15:54:52.571Z,20.81
2023-03-07T15:59:59.200Z,20.89
2023-03-07T16:05:04.803Z,20.98
2023-03-07T16:10:08.170Z,21.08
2023-03-07T16:15:14.644Z,21.13
2023-03-07T16:20:21.251Z,21.19
2023-03-07T16:25:27.453Z,21.22
2023-03-07T16:30:30.512Z,21.25
2023-03-07T16:35:35.381Z,21.28
2023-03-07T16:40:42.182Z,21.29
2023-03-07T16:45:44.971Z,21.31
2023-03-07T16:50:49.033Z,21.34
2023-03-07T16:55:52.305Z,21.35
2023-03-07T17:00:55.903Z,21.40
2023-03-07T17:06:00.408Z,21.43
2023-03-07T17:11:03.549Z,21.45
2023-03-07T17:16:06.633Z,21.52
2023-03-07T17:21:13.778Z,21.58
2023-03-07T17:26:29.686Z,21.62
2023-03-07T17:31:32.507Z,21.64
2023-03-07T17:36:36.620Z,21.68
2023-03-07T17:41:39.394Z,21.70
2023-03-07T17:46:42.135Z,21.72
2023-03-07T17:51:46.687Z,21.68
2023-03-07T17:56:49.373Z,21.68
2023-03-07T18:01:52.145Z,21.71
2023-03-07T18:06:56.322Z,21.69
2023-03-07T18:11:59.145Z,21.74
2023-03-07T18:17:01.847Z,21.75
2023-03-07T18:22:06.261Z,21.74
2023-03-07T18:27:10.052Z,21.77
2023-03-07T18:32:13.081Z,21.77
2023-03-07T18:37:17.384Z,21.78
2023-03-07T18:42:20.094Z,21.78
2023-03-07T18:47:22.756Z,21.82
2023-03-07T18:52:26.800Z,21.81
2023-03-07T18:57:29.486Z,21.87
2023-03-07T19:02:32.408Z,21.90
2023-03-07T19:07:36.572Z,21.88
2023-03-07T19:12:39.355Z,21.88
2023-03-07T19:17:42.462Z,21.93
2023-03-07T19:22:46.491Z,21.89
2023-03-07T19:27:49.330Z,21.96
2023-03-07T19:32:52.025Z,21.93
2023-03-07T19:37:56.082Z,22.01
2023-03-07T19:42:58.983Z,21.99
2023-03-07T19:48:01.857Z,22.03
2023-03-07T19:53:06.097Z,22.05
2023-03-07T19:58:08.895Z,22.06
2023-03-07T20:03:13.987Z,22.09
2023-03-07T20:08:18.041Z,22.11
2023-03-07T20:13:21.015Z,22.08
2023-03-07T20:18:23.657Z,22.13
2023-03-07T20:23:27.679Z,22.16
2023-03-07T20:28:30.359Z,22.15
2023-03-07T20:33:33.072Z,22.17
2023-03-07T20:38:38.350Z,22.21
2023-03-07T20:43:41.689Z,22.21
2023-03-07T20:48:44.826Z,22.17
2023-03-07T20:53:51.019Z,22.20
2023-03-07T20:58:54.786Z,22.05
2023-03-07T21:04:03.871Z,22.17
2023-03-07T21:09:10.095Z,22.19
2023-03-07T21:14:13.284Z,21.91
2023-03-07T21:19:16.324Z,22.18
2023-03-07T21:24:20.393Z,22.27
2023-03-07T21:29:23.049Z,22.29
2023-03-07T21:34:25.928Z,22.31
2023-03-07T21:39:29.986Z,22.31
2023-03-07T21:44:33.053Z,22.34
2023-03-07T21:49:35.836Z,22.34
2023-03-07T21:54:39.881Z,22.31
2023-03-07T21:59:42.685Z,22.29
2023-03-07T22:04:45.335Z,22.32
2023-03-07T22:09:49.411Z,22.29
2023-03-07T22:14:52.140Z,22.29
2023-03-07T22:19:54.847Z,22.23
2023-03-07T22:24:58.908Z,22.23
2023-03-07T22:30:01.614Z,22.21
2023-03-07T22:35:04.924Z,22.18
2023-03-07T22:40:11.482Z,22.17
2023-03-07T22:45:14.594Z,22.14
2023-03-07T22:50:17.955Z,22.13
2023-03-07T22:55:21.994Z,22.11
2023-03-07T23:00:25.510Z,22.10
2023-03-07T23:05:28.349Z,22.07
2023-03-07T23:10:32.593Z,21.82
2023-03-07T23:15:35.376Z,21.91
2023-03-07T23:20:38.799Z,21.97
2023-03-07T23:25:43.530Z,22.05
2023-03-07T23:30:46.311Z,22.08
2023-03-07T23:35:49.107Z,22.11
2023-03-07T23:40:53.340Z,22.14
2023-03-07T23:45:56.274Z,22.18
2023-03-07T23:50:59.067Z,22.23
2023-03-07T23:56:05.911Z,22.27
